Time;durP1;ratioP1;P1;durP2;ratioP2;P2;SDS_P1;SDS_P2;PMS_P1;PMS_P2;Temp;Humidity;BMP_temperature;BMP_pressure;BME280_temperature;BME280_humidity;BME280_pressure;Samples;Min_cycle;Max_cycle;Signal;HPM_P1;HPM_P2
2022/10/22 00:01:19;;;;;;;6.28;1.60;;;16.10;99.90;;;;;;4132743;28;20655;-95
2022/10/22 00:39:25;;;;;;;8.90;1.52;;;16.00;99.90;;;;;;4569718;22;20233;-95
2022/10/22 03:07:28;;;;;;;6.82;1.55;;;15.10;99.90;;;;;;4139599;28;20216;-94
2022/10/22 03:09:30;;;;;;;13.55;2.13;;;15.10;99.90;;;;;;4120808;28;20192;-92
2022/10/22 03:11:34;;;;;;;9.13;1.75;;;15.20;99.90;;;;;;4124716;28;20604;-93
2022/10/22 03:13:34;;;;;;;8.98;1.73;;;15.10;99.90;;;;;;4116210;28;20269;-94
2022/10/22 03:15:35;;;;;;;10.75;1.70;;;15.10;99.90;;;;;;4102592;29;20179;-96
2022/10/22 03:17:37;;;;;;;9.50;1.85;;;15.20;99.90;;;;;;4104046;28;20179;-96
2022/10/22 03:19:39;;;;;;;15.93;1.60;;;15.20;99.90;;;;;;4123558;28;20178;-94
2022/10/22 03:21:42;;;;;;;17.02;1.77;;;15.10;99.90;;;;;;4110814;28;20195;-96
2022/10/22 03:23:43;;;;;;;16.55;2.15;;;15.10;99.90;;;;;;4109094;28;20159;-96
2022/10/22 03:25:50;;;;;;;10.77;1.77;;;15.10;99.90;;;;;;4113396;28;20210;-95
2022/10/22 03:27:52;;;;;;;11.13;1.63;;;15.00;99.90;;;;;;4123528;28;20174;-92
2022/10/22 03:29:54;;;;;;;8.00;1.63;;;15.20;99.90;;;;;;4127175;28;20213;-94
2022/10/22 03:31:55;;;;;;;11.32;1.73;;;15.10;99.90;;;;;;4129638;28;20190;-96
2022/10/22 03:33:58;;;;;;;6.18;1.58;;;15.10;99.90;;;;;;4112187;29;20194;-96
2022/10/22 03:35:59;;;;;;;15.90;1.92;;;15.10;99.90;;;;;;4110720;29;20187;-96
2022/10/22 03:38:00;;;;;;;8.13;1.38;;;15.10;99.90;;;;;;4112156;29;20174;-95
2022/10/22 03:40:23;;;;;;;11.63;1.90;;;15.10;99.90;;;;;;4109069;28;20167;-93
2022/10/22 03:42:24;;;;;;;8.95;1.70;;;15.10;99.90;;;;;;4126434;28;20201;-95
2022/10/22 03:44:26;;;;;;;9.25;1.83;;;15.10;99.90;;;;;;4109225;28;20171;-96
2022/10/22 03:46:29;;;;;;;11.73;1.52;;;15.00;99.90;;;;;;4113033;28;20187;-94
2022/10/22 03:48:30;;;;;;;9.48;1.48;;;15.10;99.90;;;;;;4114076;28;20194;-95
2022/10/22 03:50:30;;;;;;;12.50;1.95;;;15.10;99.90;;;;;;4110170;28;20695;-95
2022/10/22 03:52:38;;;;;;;13.27;1.67;;;15.20;99.90;;;;;;4128577;28;20182;-95
2022/10/22 03:54:39;;;;;;;14.30;1.75;;;15.20;99.90;;;;;;4090438;29;20207;-95
2022/10/22 03:56:40;;;;;;;9.23;1.50;;;15.20;99.90;;;;;;4107730;28;20175;-92
2022/10/22 03:58:41;;;;;;;14.95;1.80;;;15.30;99.90;;;;;;4120450;28;20703;-95
2022/10/22 04:00:42;;;;;;;10.50;1.50;;;15.30;99.90;;;;;;4107731;28;20226;-93
2022/10/22 04:02:58;;;;;;;15.82;1.73;;;15.40;99.90;;;;;;4128432;28;20170;-95
2022/10/22 04:04:58;;;;;;;10.02;1.50;;;15.40;99.90;;;;;;4106959;28;20193;-94
2022/10/22 04:06:59;;;;;;;10.02;2.08;;;15.20;99.90;;;;;;4097095;28;274287;-96
2022/10/22 04:09:01;;;;;;;8.90;1.58;;;15.20;99.90;;;;;;4114009;28;20179;-94
2022/10/22 04:11:02;;;;;;;11.55;1.70;;;15.30;99.90;;;;;;4129866;28;20202;-96
2022/10/22 04:13:02;;;;;;;12.52;1.45;;;15.30;99.90;;;;;;4107312;28;20258;-93
2022/10/22 04:15:04;;;;;;;8.00;1.55;;;15.30;99.90;;;;;;4124319;28;20186;-96
2022/10/22 04:17:05;;;;;;;10.65;1.52;;;15.20;99.90;;;;;;4109739;28;20218;-95
2022/10/22 04:19:06;;;;;;;13.55;1.80;;;15.20;99.90;;;;;;4112529;28;20253;-96
2022/10/22 04:21:09;;;;;;;12.80;2.22;;;15.20;99.90;;;;;;4113725;28;20607;-95
2022/10/22 04:23:10;;;;;;;11.55;1.50;;;15.10;99.90;;;;;;4111914;28;20175;-95
2022/10/22 04:25:12;;;;;;;8.90;1.52;;;15.10;99.90;;;;;;4114832;28;20167;-96
2022/10/22 04:27:13;;;;;;;7.57;1.42;;;15.00;99.90;;;;;;4111941;28;20201;-96
2022/10/22 04:29:14;;;;;;;9.77;1.38;;;15.10;99.90;;;;;;4124902;28;20178;-94
2022/10/22 04:31:21;;;;;;;13.15;1.80;;;15.10;99.90;;;;;;4112489;28;20195;-95
2022/10/22 04:33:23;;;;;;;9.68;1.67;;;15.10;99.90;;;;;;4106717;28;20543;-95
2022/10/22 04:35:24;;;;;;;8.93;1.50;;;15.10;99.90;;;;;;4113584;28;20179;-93
2022/10/22 04:37:41;;;;;;;6.75;1.33;;;15.10;99.90;;;;;;4125905;28;20246;-94
2022/10/22 04:39:43;;;;;;;14.38;1.30;;;15.10;99.90;;;;;;4114080;28;20186;-93
2022/10/22 04:41:43;;;;;;;14.88;2.10;;;15.10;99.90;;;;;;4108192;28;20170;-94
2022/10/22 04:43:45;;;;;;;11.70;1.63;;;15.10;99.90;;;;;;4125103;28;20186;-95
2022/10/22 04:45:54;;;;;;;10.73;1.40;;;15.10;99.90;;;;;;4122234;28;20169;-94
2022/10/22 04:47:59;;;;;;;10.32;1.60;;;15.20;99.90;;;;;;4117292;28;20165;-94
2022/10/22 04:49:59;;;;;;;15.63;2.00;;;15.20;99.90;;;;;;4115193;29;20242;-93
2022/10/22 04:52:00;;;;;;;12.70;2.10;;;15.20;99.90;;;;;;4112769;28;20202;-93
2022/10/22 04:54:22;;;;;;;12.90;1.48;;;15.20;99.90;;;;;;4134593;28;20145;-96
2022/10/22 04:56:28;;;;;;;11.02;1.60;;;15.20;99.90;;;;;;4109163;28;20186;-95
2022/10/22 04:58:29;;;;;;;9.48;1.65;;;15.20;99.90;;;;;;4128632;22;20233;-94
2022/10/22 05:00:32;;;;;;;10.88;1.70;;;15.20;99.90;;;;;;4135587;28;20162;-93
2022/10/22 05:02:35;;;;;;;9.70;1.33;;;15.20;99.90;;;;;;4129885;28;20194;-96
2022/10/22 05:04:42;;;;;;;13.30;1.75;;;15.20;99.90;;;;;;4131779;28;20186;-94
2022/10/22 05:06:44;;;;;;;12.55;1.67;;;15.20;99.90;;;;;;4113907;28;20183;-95
2022/10/22 05:08:54;;;;;;;11.05;1.92;;;15.20;99.90;;;;;;4133200;28;20167;-95
2022/10/22 05:10:55;;;;;;;12.18;1.40;;;15.40;99.90;;;;;;4131418;28;20225;-91
2022/10/22 05:12:59;;;;;;;8.73;1.73;;;15.50;99.90;;;;;;4128253;28;20193;-94
2022/10/22 05:15:03;;;;;;;11.43;1.92;;;15.60;99.90;;;;;;4128570;28;20182;-93
2022/10/22 05:17:06;;;;;;;8.52;1.23;;;15.70;99.90;;;;;;4114291;28;20688;-94
2022/10/22 05:19:07;;;;;;;9.50;1.58;;;15.70;99.90;;;;;;4122263;28;20176;-92
2022/10/22 05:21:13;;;;;;;10.85;1.80;;;15.80;99.90;;;;;;4125926;28;20199;-95
2022/10/22 05:23:14;;;;;;;9.57;1.50;;;15.90;99.90;;;;;;4126619;28;20178;-95
2022/10/22 05:25:15;;;;;;;5.65;1.30;;;15.90;99.90;;;;;;4130814;28;20168;-94
2022/10/22 05:27:17;;;;;;;9.02;1.55;;;15.90;99.90;;;;;;4113119;28;20230;-96
2022/10/22 05:29:25;;;;;;;10.50;1.58;;;15.80;99.90;;;;;;4116540;28;20579;-96
2022/10/22 05:31:27;;;;;;;12.48;1.40;;;15.80;99.90;;;;;;4125254;28;20218;-95
2022/10/22 05:33:45;;;;;;;9.52;1.33;;;15.70;99.90;;;;;;4128804;28;20185;-96
2022/10/22 05:35:54;;;;;;;9.52;1.67;;;15.70;99.90;;;;;;4128752;28;20345;-94
2022/10/22 05:37:58;;;;;;;8.10;1.50;;;15.70;99.90;;;;;;4130972;28;20206;-94
2022/10/22 05:40:02;;;;;;;12.07;2.03;;;15.80;99.90;;;;;;4125042;28;20598;-94
2022/10/22 05:42:14;;;;;;;7.35;1.48;;;15.70;99.90;;;;;;4130039;28;20198;-95
2022/10/22 05:44:17;;;;;;;12.40;1.80;;;15.70;99.90;;;;;;4109261;28;20189;-93
2022/10/22 05:46:20;;;;;;;8.40;1.45;;;15.70;99.90;;;;;;4092807;29;20192;-96
2022/10/22 05:48:21;;;;;;;10.30;1.40;;;15.70;99.90;;;;;;4126883;28;20186;-94
2022/10/22 05:50:24;;;;;;;12.00;1.25;;;15.70;99.90;;;;;;4108928;28;20675;-95
2022/10/22 05:55:35;;;;;;;10.45;1.63;;;15.90;99.90;;;;;;4130714;28;20183;-95
2022/10/22 05:57:40;;;;;;;10.18;1.63;;;15.80;99.90;;;;;;4122651;28;20170;-91
2022/10/22 05:59:41;;;;;;;9.27;1.40;;;15.80;99.90;;;;;;4109063;28;20197;-94
2022/10/22 06:01:42;;;;;;;4.03;0.90;;;15.90;99.90;;;;;;4129400;28;20182;-95
2022/10/22 06:04:14;;;;;;;10.88;1.88;;;15.90;99.90;;;;;;4126374;28;20178;-92
2022/10/22 06:06:29;;;;;;;8.68;1.60;;;15.90;99.90;;;;;;4107001;28;20213;-96
2022/10/22 06:08:30;;;;;;;9.10;1.30;;;15.80;99.90;;;;;;4106935;28;20189;-95
2022/10/22 06:10:31;;;;;;;12.65;1.63;;;15.80;99.90;;;;;;4113126;28;20206;-96
2022/10/22 06:12:32;;;;;;;9.82;1.35;;;15.90;99.90;;;;;;4128197;28;20651;-95
2022/10/22 06:14:35;;;;;;;15.35;1.35;;;15.90;99.90;;;;;;4112851;28;20156;-95
2022/10/22 06:16:39;;;;;;;12.57;1.80;;;15.90;99.90;;;;;;4128467;28;20296;-93
2022/10/22 06:18:40;;;;;;;14.00;1.70;;;16.00;99.90;;;;;;4105399;28;20179;-96
2022/10/22 06:20:46;;;;;;;9.90;1.40;;;15.90;99.90;;;;;;4123475;28;20201;-96
2022/10/22 06:22:49;;;;;;;12.25;1.35;;;15.90;99.90;;;;;;4125485;28;20178;-95
2022/10/22 06:24:57;;;;;;;15.43;1.67;;;16.00;99.90;;;;;;4108082;28;20217;-94
2022/10/22 06:26:59;;;;;;;9.35;1.40;;;16.10;99.90;;;;;;4113106;28;20182;-92
2022/10/22 06:29:00;;;;;;;7.80;1.17;;;16.00;99.90;;;;;;4107254;28;20194;-92
2022/10/22 06:31:02;;;;;;;11.15;1.48;;;16.20;99.90;;;;;;4125792;28;20241;-94
2022/10/22 06:33:03;;;;;;;11.25;1.77;;;16.00;99.90;;;;;;4124512;28;20182;-93
2022/10/22 06:35:04;;;;;;;12.40;1.70;;;16.00;99.90;;;;;;4110210;28;20186;-95
2022/10/22 06:37:05;;;;;;;11.65;1.67;;;16.10;99.90;;;;;;4110914;28;20203;-96
2022/10/22 06:39:08;;;;;;;15.85;1.50;;;16.10;99.90;;;;;;4110603;28;20181;-95
2022/10/22 06:41:11;;;;;;;12.23;1.70;;;16.10;99.90;;;;;;4110102;28;20256;-92
2022/10/22 06:43:18;;;;;;;11.40;1.80;;;16.10;99.90;;;;;;4124844;28;20186;-95
2022/10/22 06:45:21;;;;;;;14.73;2.05;;;16.00;99.90;;;;;;4125798;28;20174;-93
2022/10/22 06:47:23;;;;;;;12.07;1.65;;;16.00;99.90;;;;;;4123725;28;20179;-91
2022/10/22 06:49:23;;;;;;;8.15;1.38;;;16.10;99.90;;;;;;4106821;28;20170;-91
2022/10/22 06:51:33;;;;;;;12.82;1.60;;;16.10;99.90;;;;;;4107772;28;20229;-94
2022/10/22 06:53:38;;;;;;;12.20;1.75;;;16.10;99.90;;;;;;4111442;28;20591;-95
2022/10/22 06:55:42;;;;;;;16.27;1.48;;;16.10;99.90;;;;;;4109206;28;20174;-92
2022/10/22 06:57:42;;;;;;;9.10;1.33;;;16.00;99.90;;;;;;4107262;28;20185;-92
2022/10/22 06:59:45;;;;;;;9.55;1.40;;;16.00;99.90;;;;;;4125682;28;20205;-95
2022/10/22 07:01:50;;;;;;;13.02;1.33;;;16.10;99.90;;;;;;4106111;28;20250;-92
2022/10/22 07:03:51;;;;;;;7.85;1.30;;;16.00;99.90;;;;;;4122353;28;20169;-91
2022/10/22 07:06:04;;;;;;;9.38;1.58;;;15.90;99.90;;;;;;4091259;29;20175;-93
2022/10/22 07:08:23;;;;;;;7.15;1.38;;;15.90;99.90;;;;;;4107339;28;20190;-93
2022/10/22 07:10:24;;;;;;;11.57;1.60;;;16.10;99.90;;;;;;4107711;29;20214;-96
2022/10/22 07:12:25;;;;;;;7.60;1.23;;;16.10;99.90;;;;;;4107980;28;20226;-95
2022/10/22 07:14:25;;;;;;;13.35;1.23;;;16.10;99.90;;;;;;4121005;28;20250;-96
2022/10/22 07:16:34;;;;;;;9.07;1.45;;;16.20;99.90;;;;;;4122023;28;20182;-95
2022/10/22 07:18:36;;;;;;;14.30;1.73;;;16.20;99.90;;;;;;4107305;28;20163;-96
2022/10/22 07:20:37;;;;;;;9.98;1.33;;;16.20;99.90;;;;;;4146274;28;20217;-96
2022/10/22 07:22:38;;;;;;;18.08;1.70;;;16.20;99.90;;;;;;4126060;28;20182;-96
2022/10/22 07:24:38;;;;;;;11.48;1.60;;;16.20;99.90;;;;;;4128073;28;20170;-93
2022/10/22 07:26:39;;;;;;;13.45;1.50;;;16.30;99.90;;;;;;4107332;28;20257;-93
2022/10/22 07:28:40;;;;;;;11.05;1.58;;;16.30;99.90;;;;;;4122467;28;20162;-91
2022/10/22 07:30:41;;;;;;;11.30;1.80;;;16.40;99.90;;;;;;4103967;28;20584;-94
2022/10/22 07:32:42;;;;;;;10.88;1.30;;;16.30;99.90;;;;;;4110704;29;20178;-93
2022/10/22 07:34:43;;;;;;;6.78;1.30;;;16.40;99.90;;;;;;4088704;29;20201;-93
2022/10/22 07:36:43;;;;;;;12.27;1.33;;;16.40;99.90;;;;;;4119868;28;20170;-95
2022/10/22 07:38:46;;;;;;;7.35;1.30;;;16.50;99.90;;;;;;4119645;28;20167;-91
2022/10/22 07:40:47;;;;;;;14.38;1.60;;;16.60;99.90;;;;;;4103103;28;20551;-92
2022/10/22 07:42:47;;;;;;;10.25;1.42;;;16.70;99.90;;;;;;4105143;28;20199;-95
2022/10/22 07:44:48;;;;;;;13.52;1.80;;;16.80;99.90;;;;;;4120564;28;20186;-94
2022/10/22 07:46:52;;;;;;;6.55;1.30;;;16.90;99.90;;;;;;4107443;28;20178;-93
2022/10/22 07:48:53;;;;;;;14.80;1.70;;;16.90;99.90;;;;;;4103340;28;20636;-93
2022/10/22 07:50:54;;;;;;;11.40;1.50;;;17.10;99.90;;;;;;4119865;28;20313;-94
2022/10/22 07:52:55;;;;;;;11.00;1.88;;;17.10;99.90;;;;;;4120762;28;20714;-92
2022/10/22 07:54:55;;;;;;;8.32;1.58;;;17.30;99.90;;;;;;4123300;28;20162;-93
2022/10/22 07:56:56;;;;;;;10.43;1.77;;;17.20;99.90;;;;;;4123214;28;20177;-95
2022/10/22 07:58:57;;;;;;;4.35;1.38;;;17.10;99.90;;;;;;4122561;28;20400;-92
2022/10/22 08:01:00;;;;;;;12.82;1.58;;;17.10;99.90;;;;;;4104126;28;20258;-95
2022/10/22 08:03:01;;;;;;;6.28;1.20;;;17.10;99.90;;;;;;4104080;28;20175;-96
2022/10/22 08:05:01;;;;;;;13.30;1.50;;;17.10;99.90;;;;;;4103944;29;20177;-92
2022/10/22 08:07:02;;;;;;;12.60;1.70;;;17.00;99.90;;;;;;4103509;29;20213;-93
2022/10/22 08:09:10;;;;;;;13.52;1.63;;;17.00;99.90;;;;;;4118852;28;20193;-91
2022/10/22 08:11:14;;;;;;;8.90;1.50;;;17.00;99.90;;;;;;4105690;28;20219;-95
2022/10/22 08:13:17;;;;;;;8.68;1.48;;;17.20;99.90;;;;;;4104492;29;20198;-95
2022/10/22 08:15:21;;;;;;;11.07;1.38;;;17.20;99.90;;;;;;4108224;28;20218;-94
2022/10/22 08:17:33;;;;;;;13.20;1.70;;;17.10;99.90;;;;;;4107589;28;20178;-94
2022/10/22 08:19:42;;;;;;;9.73;1.55;;;17.10;99.90;;;;;;4124262;28;20591;-95
2022/10/22 08:21:44;;;;;;;8.80;1.90;;;16.80;99.90;;;;;;4107743;28;20194;-92
2022/10/22 08:23:44;;;;;;;7.00;1.60;;;16.90;99.90;;;;;;4110308;29;20620;-93
2022/10/22 08:25:46;;;;;;;14.18;1.60;;;17.10;99.90;;;;;;4111123;29;20186;-95
2022/10/22 08:27:48;;;;;;;8.65;1.63;;;17.30;99.90;;;;;;4105488;28;20193;-95
2022/10/22 08:29:48;;;;;;;10.43;1.50;;;17.50;99.90;;;;;;4106783;28;20170;-91
2022/10/22 08:31:53;;;;;;;11.73;1.80;;;17.90;99.90;;;;;;4122505;28;20194;-93
2022/10/22 08:33:54;;;;;;;9.10;2.10;;;18.10;99.90;;;;;;4110917;28;20167;-95
2022/10/22 08:35:55;;;;;;;16.23;1.55;;;18.30;99.90;;;;;;4106379;28;20258;-91
2022/10/22 08:37:56;;;;;;;11.68;1.80;;;18.60;99.90;;;;;;4109250;29;20198;-91
2022/10/22 08:39:58;;;;;;;10.05;1.60;;;18.80;99.90;;;;;;4124069;28;20174;-95
2022/10/22 08:42:11;;;;;;;14.63;1.65;;;18.60;99.90;;;;;;4108318;28;20290;-92
2022/10/22 08:44:44;;;;;;;9.80;1.60;;;18.50;99.90;;;;;;4104896;28;20186;-94
2022/10/22 08:47:18;;;;;;;10.95;1.52;;;18.20;99.90;;;;;;4120324;28;20186;-96
2022/10/22 08:49:48;;;;;;;10.45;1.95;;;18.10;99.90;;;;;;4103221;29;20701;-95
2022/10/22 08:51:50;;;;;;;14.63;1.67;;;18.10;99.90;;;;;;4104547;28;20219;-92
2022/10/22 08:54:25;;;;;;;9.32;1.70;;;18.20;99.90;;;;;;4120805;28;20623;-93
2022/10/22 08:56:26;;;;;;;11.35;1.73;;;18.30;99.90;;;;;;4105905;28;20174;-95
2022/10/22 08:58:57;;;;;;;10.15;1.80;;;18.70;99.90;;;;;;4104372;28;20174;-92
2022/10/22 09:01:22;;;;;;;7.20;1.67;;;19.10;99.90;;;;;;4119998;28;20197;-92
2022/10/22 09:03:47;;;;;;;11.52;1.60;;;19.30;99.90;;;;;;4121639;28;20441;-93
2022/10/22 09:06:12;;;;;;;14.18;1.60;;;19.20;99.90;;;;;;4120882;28;20174;-94
2022/10/22 09:08:16;;;;;;;10.60;1.52;;;19.50;99.90;;;;;;4104641;28;20770;-93
2022/10/22 09:10:20;;;;;;;10.30;1.52;;;19.50;99.90;;;;;;4119996;28;20273;-95
2022/10/22 09:12:23;;;;;;;12.98;1.60;;;19.50;99.90;;;;;;4106172;28;20246;-94
2022/10/22 09:14:25;;;;;;;8.60;1.80;;;19.70;99.90;;;;;;4121264;28;20269;-94
2022/10/22 09:16:51;;;;;;;9.07;1.77;;;20.00;99.90;;;;;;4119610;28;20178;-92
2022/10/22 09:19:19;;;;;;;12.85;1.65;;;20.00;99.90;;;;;;4103881;28;20682;-92
2022/10/22 09:21:52;;;;;;;11.27;2.20;;;19.80;99.90;;;;;;4103255;28;20290;-94
2022/10/22 09:24:04;;;;;;;11.90;1.85;;;19.50;99.90;;;;;;4103919;28;20179;-93
2022/10/22 09:26:15;;;;;;;10.65;1.80;;;19.50;99.90;;;;;;4118137;28;20181;-92
2022/10/22 09:28:16;;;;;;;22.20;2.28;;;19.40;99.90;;;;;;4117378;28;20593;-91
2022/10/22 09:30:22;;;;;;;13.65;1.63;;;19.30;99.90;;;;;;4118771;28;20204;-93
2022/10/22 09:32:25;;;;;;;11.52;1.90;;;19.30;99.90;;;;;;4103455;28;20194;-94
2022/10/22 09:34:28;;;;;;;7.30;1.60;;;19.10;99.90;;;;;;4103802;28;20266;-96
2022/10/22 09:36:29;;;;;;;11.40;1.65;;;19.10;99.90;;;;;;4117436;28;20170;-95
2022/10/22 09:38:32;;;;;;;9.82;1.52;;;19.30;99.90;;;;;;4103934;28;20186;-94
2022/10/22 09:40:48;;;;;;;9.13;1.55;;;19.20;99.90;;;;;;4104208;28;20183;-93
2022/10/22 09:42:49;;;;;;;12.25;1.80;;;19.00;99.90;;;;;;4103542;28;20230;-93
2022/10/22 09:45:13;;;;;;;12.55;2.28;;;18.90;99.90;;;;;;4118863;28;20269;-93
2022/10/22 09:47:38;;;;;;;12.23;1.60;;;18.60;99.90;;;;;;4089603;29;20274;-94
2022/10/22 09:56:54;;;;;;;8.57;1.35;;;18.60;99.90;;;;;;4139499;28;20212;-94
2022/10/22 10:08:37;;;;;;;12.13;2.38;;;19.20;99.90;;;;;;4344229;22;20256;-96
2022/10/22 10:15:50;;;;;;;11.43;1.58;;;19.50;99.90;;;;;;4122286;28;20624;-92
2022/10/22 10:18:20;;;;;;;13.40;1.85;;;19.60;99.90;;;;;;4121651;28;20166;-92
2022/10/22 10:20:23;;;;;;;12.40;1.40;;;19.70;99.90;;;;;;4082054;29;20190;-92
2022/10/22 10:22:36;;;;;;;8.15;1.55;;;19.70;99.90;;;;;;4103056;28;20206;-92
2022/10/22 10:24:57;;;;;;;11.52;1.70;;;19.60;99.90;;;;;;4088308;29;20217;-93
2022/10/22 10:27:09;;;;;;;10.98;1.88;;;19.90;99.90;;;;;;4075531;29;20230;-95
2022/10/22 10:29:28;;;;;;;8.02;1.63;;;19.90;99.90;;;;;;4092738;29;20683;-95
2022/10/22 10:31:32;;;;;;;16.98;2.13;;;20.10;99.90;;;;;;4090295;29;20227;-95
2022/10/22 10:33:59;;;;;;;10.55;1.58;;;20.10;99.90;;;;;;4092048;29;20172;-91
2022/10/22 10:36:41;;;;;;;11.20;1.90;;;20.00;99.90;;;;;;4091221;29;20231;-91
2022/10/22 10:39:00;;;;;;;14.90;1.67;;;19.80;99.90;;;;;;4099311;29;20187;-95
2022/10/22 10:41:28;;;;;;;13.88;2.20;;;19.80;99.90;;;;;;4094085;29;20238;-95
2022/10/22 10:44:14;;;;;;;8.55;1.48;;;19.60;99.90;;;;;;4100629;29;20183;-91
2022/10/22 10:46:32;;;;;;;11.77;2.00;;;19.70;99.90;;;;;;4097741;28;20225;-94
2022/10/22 10:48:58;;;;;;;9.23;1.83;;;19.90;99.90;;;;;;4104487;29;20179;-94
2022/10/22 10:51:12;;;;;;;7.72;1.35;;;20.00;99.90;;;;;;4104019;28;20228;-93
2022/10/22 10:53:37;;;;;;;16.85;1.85;;;19.90;99.90;;;;;;4085572;29;20175;-94
2022/10/22 10:56:00;;;;;;;10.57;1.55;;;20.20;99.90;;;;;;4090388;29;20184;-94
2022/10/22 10:58:19;;;;;;;11.65;1.50;;;20.40;99.90;;;;;;4077820;29;20165;-92
2022/10/22 11:00:22;;;;;;;8.95;1.42;;;20.50;99.90;;;;;;4080598;29;20176;-93
2022/10/22 11:02:43;;;;;;;11.02;1.50;;;20.40;99.90;;;;;;4078012;29;20208;-93
2022/10/22 11:05:10;;;;;;;7.45;1.67;;;20.50;99.90;;;;;;4091376;29;20187;-92
2022/10/22 11:07:28;;;;;;;13.85;2.00;;;20.70;99.90;;;;;;4091987;29;20306;-92
2022/10/22 11:09:38;;;;;;;10.43;1.55;;;20.50;99.90;;;;;;4088964;29;20171;-90
2022/10/22 11:11:53;;;;;;;13.13;1.70;;;20.60;99.90;;;;;;4092972;29;20308;-94
2022/10/22 11:14:05;;;;;;;6.97;1.27;;;20.80;99.90;;;;;;4089425;29;20180;-94
2022/10/22 11:16:33;;;;;;;9.82;1.33;;;20.70;99.90;;;;;;4103390;29;20175;-92
2022/10/22 11:18:44;;;;;;;8.90;1.48;;;20.70;99.90;;;;;;4088222;29;20176;-92
2022/10/22 11:21:28;;;;;;;10.00;1.45;;;20.70;99.90;;;;;;4087555;29;20661;-93
2022/10/22 11:23:43;;;;;;;10.38;1.63;;;20.70;99.90;;;;;;4054012;29;20181;-92
2022/10/22 11:25:47;;;;;;;10.45;1.50;;;20.50;99.90;;;;;;4068908;29;20250;-94
2022/10/22 11:27:53;;;;;;;14.80;1.90;;;20.30;99.90;;;;;;4089553;29;20176;-93
2022/10/22 11:30:10;;;;;;;12.45;1.42;;;20.30;99.90;;;;;;4102419;29;20509;-93
2022/10/22 11:32:18;;;;;;;8.05;1.13;;;20.20;99.90;;;;;;4085571;29;20199;-95
2022/10/22 11:34:39;;;;;;;10.82;1.30;;;19.90;99.90;;;;;;4085246;29;20560;-92
2022/10/22 11:36:41;;;;;;;9.82;1.20;;;19.90;99.90;;;;;;4085287;29;20183;-95
2022/10/22 11:38:42;;;;;;;6.00;1.40;;;19.70;99.90;;;;;;4085107;29;20183;-92
2022/10/22 11:40:51;;;;;;;8.93;1.40;;;19.70;99.90;;;;;;4085832;29;20231;-91
2022/10/22 11:42:54;;;;;;;6.85;1.20;;;19.60;99.90;;;;;;4085107;29;20183;-91
2022/10/22 11:44:59;;;;;;;11.18;1.48;;;19.70;99.90;;;;;;4086259;29;20202;-94
2022/10/22 11:47:23;;;;;;;13.30;1.80;;;19.80;99.90;;;;;;4086246;29;20518;-96
2022/10/22 11:49:53;;;;;;;9.48;1.50;;;20.00;99.90;;;;;;4086069;29;20176;-92
2022/10/22 11:52:41;;;;;;;11.00;1.75;;;20.10;99.90;;;;;;4052864;29;20730;-95
2022/10/22 11:54:44;;;;;;;9.30;1.23;;;20.10;99.90;;;;;;3994677;29;20191;-91
2022/10/22 11:56:44;;;;;;;8.20;1.40;;;20.00;99.90;;;;;;4054246;29;20641;-92
2022/10/22 11:58:46;;;;;;;6.78;1.08;;;20.00;99.90;;;;;;4088633;29;20186;-95
2022/10/22 12:00:47;;;;;;;11.57;1.52;;;20.00;99.90;;;;;;4087820;29;20220;-91
2022/10/22 12:03:15;;;;;;;8.15;1.20;;;20.10;99.90;;;;;;4088599;29;20274;-91
2022/10/22 12:05:25;;;;;;;8.68;1.45;;;20.20;99.90;;;;;;4092512;29;20184;-91
2022/10/22 12:07:46;;;;;;;4.75;1.58;;;20.30;99.90;;;;;;4091377;29;20183;-91
2022/10/22 12:09:51;;;;;;;10.88;1.83;;;20.40;99.90;;;;;;4091320;29;20179;-92
2022/10/22 12:11:52;;;;;;;10.02;1.17;;;20.40;99.90;;;;;;4089296;29;20211;-90
2022/10/22 12:14:18;;;;;;;6.32;1.23;;;20.40;99.90;;;;;;4087871;29;20599;-91
2022/10/22 12:16:23;;;;;;;8.20;1.25;;;20.60;99.90;;;;;;4088696;29;20186;-90
2022/10/22 12:18:38;;;;;;;5.38;1.10;;;20.70;99.90;;;;;;4088521;29;20176;-91
2022/10/22 12:20:39;;;;;;;7.57;1.00;;;21.00;99.90;;;;;;4088932;29;20183;-93
2022/10/22 12:22:40;;;;;;;9.38;1.17;;;21.10;99.90;;;;;;4089115;29;20363;-92
2022/10/22 12:24:44;;;;;;;9.57;1.20;;;21.10;99.90;;;;;;4089814;29;20548;-91
2022/10/22 12:26:48;;;;;;;7.60;1.20;;;21.10;99.90;;;;;;4089844;29;20179;-93
2022/10/22 12:28:50;;;;;;;11.23;1.40;;;21.10;99.90;;;;;;4091489;29;20203;-91
2022/10/22 12:30:51;;;;;;;5.45;1.17;;;21.10;99.90;;;;;;4090981;29;20222;-94
2022/10/22 12:33:04;;;;;;;11.77;1.15;;;20.90;99.90;;;;;;4107671;29;20543;-94
2022/10/22 12:35:15;;;;;;;7.80;1.30;;;20.60;99.90;;;;;;4092676;29;20266;-95
2022/10/22 12:37:18;;;;;;;7.50;1.65;;;20.40;99.90;;;;;;4090433;29;20218;-91
2022/10/22 12:39:24;;;;;;;13.70;1.63;;;20.60;99.90;;;;;;4089147;29;20190;-92
2022/10/22 12:41:35;;;;;;;9.55;1.25;;;20.50;99.90;;;;;;4089364;29;20199;-94
2022/10/22 12:43:38;;;;;;;10.85;1.15;;;20.60;99.90;;;;;;4088088;29;20175;-93
2022/10/22 12:45:40;;;;;;;9.60;1.77;;;20.90;99.90;;;;;;4087904;29;20184;-92
2022/10/22 12:47:45;;;;;;;9.48;0.82;;;21.00;99.90;;;;;;4088579;29;20172;-96
2022/10/22 12:49:48;;;;;;;5.53;1.17;;;21.10;99.90;;;;;;4088009;29;20239;-95
2022/10/22 12:51:49;;;;;;;10.07;1.15;;;21.30;99.90;;;;;;4088996;29;20215;-95
2022/10/22 12:53:55;;;;;;;6.22;1.00;;;21.00;99.90;;;;;;4085743;29;20179;-92
2022/10/22 12:56:01;;;;;;;5.93;1.08;;;20.90;99.90;;;;;;4087054;29;20672;-91
2022/10/22 12:58:06;;;;;;;14.63;2.33;;;21.10;99.90;;;;;;4087845;29;20215;-95
2022/10/22 13:00:23;;;;;;;8.60;1.40;;;21.30;99.90;;;;;;4089241;29;20282;-96
2022/10/22 13:02:26;;;;;;;9.65;1.30;;;21.40;99.90;;;;;;4087109;29;20198;-93
2022/10/22 13:04:32;;;;;;;9.35;1.50;;;21.70;99.90;;;;;;4087894;29;20295;-93
2022/10/22 13:06:34;;;;;;;5.90;1.35;;;21.70;99.90;;;;;;4073611;29;20169;-91
2022/10/22 13:08:38;;;;;;;5.70;0.95;;;21.70;99.90;;;;;;4090331;29;20183;-91
2022/10/22 13:10:41;;;;;;;13.10;1.45;;;21.60;99.90;;;;;;4072386;29;20747;-92
2022/10/22 13:12:47;;;;;;;5.00;1.10;;;21.70;99.90;;;;;;4071449;29;20183;-91
2022/10/22 13:14:48;;;;;;;7.70;1.33;;;21.90;99.90;;;;;;4071015;29;20192;-93
2022/10/22 13:17:06;;;;;;;4.63;1.40;;;21.90;99.90;;;;;;4071275;29;20191;-92
2022/10/22 13:19:46;;;;;;;10.68;1.10;;;21.70;99.90;;;;;;4071521;29;20184;-94
2022/10/22 13:21:52;;;;;;;8.43;1.20;;;22.10;99.90;;;;;;4072795;29;20195;-92
2022/10/22 13:23:57;;;;;;;5.45;1.02;;;22.10;99.90;;;;;;4098815;29;20307;-90
2022/10/22 13:26:10;;;;;;;8.15;1.20;;;22.10;99.90;;;;;;4085751;29;20175;-90
2022/10/22 13:28:19;;;;;;;7.65;1.13;;;22.00;99.90;;;;;;4085676;29;20197;-90
2022/10/22 13:30:30;;;;;;;7.93;1.40;;;22.00;99.90;;;;;;4085689;29;20230;-90
2022/10/22 13:32:32;;;;;;;12.48;1.65;;;21.60;99.90;;;;;;4085605;29;20186;-92
2022/10/22 13:34:35;;;;;;;7.13;1.20;;;21.40;99.90;;;;;;4085811;29;20180;-94
2022/10/22 13:36:35;;;;;;;7.00;1.20;;;21.50;99.90;;;;;;4085799;29;20179;-90
2022/10/22 13:38:36;;;;;;;13.43;1.20;;;21.50;99.90;;;;;;4085502;29;20208;-93
2022/10/22 13:40:37;;;;;;;9.73;1.23;;;21.20;99.90;;;;;;4085778;29;20171;-93
2022/10/22 13:42:38;;;;;;;9.13;1.10;;;21.20;99.90;;;;;;4100003;29;20249;-91
2022/10/22 13:44:39;;;;;;;5.47;1.10;;;21.30;99.90;;;;;;4086477;29;20274;-91
2022/10/22 13:46:41;;;;;;;5.90;1.05;;;21.40;99.90;;;;;;4069623;29;20172;-90
2022/10/22 13:48:43;;;;;;;12.25;1.15;;;21.40;99.90;;;;;;4070328;29;20207;-91
2022/10/22 13:50:45;;;;;;;9.57;1.30;;;21.50;99.90;;;;;;4075117;29;20294;-95
2022/10/22 13:52:53;;;;;;;10.05;1.33;;;21.70;99.90;;;;;;4085186;29;20191;-90
2022/10/22 13:54:54;;;;;;;9.63;1.60;;;21.60;99.90;;;;;;4085120;29;20202;-94
2022/10/22 13:56:54;;;;;;;10.73;1.42;;;21.10;99.90;;;;;;4085081;29;20183;-91
2022/10/22 13:58:55;;;;;;;6.68;1.15;;;21.20;99.90;;;;;;4085958;29;20182;-93
2022/10/22 14:00:58;;;;;;;7.03;1.60;;;21.20;99.90;;;;;;4085305;29;20732;-90
2022/10/22 14:02:59;;;;;;;7.90;1.00;;;20.90;99.90;;;;;;4089271;29;20260;-93
2022/10/22 14:05:03;;;;;;;12.90;1.25;;;20.80;99.90;;;;;;4085171;29;20180;-89
2022/10/22 14:07:11;;;;;;;4.43;1.20;;;20.70;99.90;;;;;;4069229;29;20240;-91
2022/10/22 14:09:14;;;;;;;12.73;1.27;;;20.50;99.90;;;;;;4085485;29;20576;-90
2022/10/22 14:11:16;;;;;;;6.22;1.10;;;20.60;99.90;;;;;;4084851;29;20712;-90
2022/10/22 14:13:18;;;;;;;7.45;1.17;;;20.70;99.90;;;;;;4075498;29;20171;-91
2022/10/22 14:15:22;;;;;;;9.65;1.23;;;20.80;99.90;;;;;;4084767;29;20214;-91
2022/10/22 14:17:23;;;;;;;8.20;1.10;;;21.00;99.90;;;;;;4086235;29;20172;-91
2022/10/22 14:19:24;;;;;;;4.85;0.98;;;21.10;99.90;;;;;;4069445;29;20554;-92
2022/10/22 14:21:24;;;;;;;12.60;1.13;;;21.10;99.90;;;;;;4069174;29;20748;-92
2022/10/22 14:23:30;;;;;;;8.55;1.55;;;21.00;99.90;;;;;;4076411;29;20184;-91